createdAt,value
2019-04-14T00:07:36.390Z,3.60
2019-04-14T00:12:40.562Z,2.60
2019-04-14T00:18:05.442Z,2.13
2019-04-14T00:20:35.809Z,2.80
2019-04-14T00:23:04.813Z,3.07
2019-04-14T00:25:33.229Z,3.00
2019-04-14T00:28:02.939Z,3.20
2019-04-14T00:30:31.850Z,3.13
2019-04-14T00:35:56.106Z,3.23
2019-04-14T00:38:43.503Z,3.13
2019-04-14T00:41:41.378Z,2.67
2019-04-14T00:44:19.712Z,2.77
2019-04-14T00:47:07.111Z,3.03
2019-04-14T00:49:35.593Z,2.97
2019-04-14T00:52:23.387Z,3.37
2019-04-14T00:54:54.237Z,2.90
2019-04-14T00:57:23.242Z,2.90
2019-04-14T00:59:52.971Z,3.00
2019-04-14T01:02:21.777Z,2.43
2019-04-14T01:04:51.338Z,2.80
2019-04-14T01:07:21.556Z,3.17
2019-04-14T01:09:51.021Z,2.77
2019-04-14T01:12:19.538Z,2.10
2019-04-14T01:14:48.065Z,2.30
2019-04-14T01:17:17.636Z,2.10
2019-04-14T01:19:46.769Z,2.47
2019-04-14T01:22:16.236Z,2.20
2019-04-14T01:24:45.337Z,3.30
2019-04-14T01:27:14.582Z,4.43
2019-04-14T01:29:44.827Z,4.00
2019-04-14T01:32:13.934Z,3.83
2019-04-14T01:34:43.306Z,4.17
2019-04-14T01:37:13.639Z,4.03
2019-04-14T01:39:43.465Z,4.07
2019-04-14T01:42:13.721Z,3.43
2019-04-14T01:44:43.772Z,2.87
2019-04-14T01:47:13.712Z,4.13
2019-04-14T01:49:42.857Z,3.47
2019-04-14T01:52:30.125Z,3.77
2019-04-14T01:55:17.766Z,3.13
2019-04-14T01:57:57.247Z,3.90
2019-04-14T02:00:44.579Z,3.80
2019-04-14T02:03:13.171Z,4.07
2019-04-14T02:05:41.718Z,3.77
2019-04-14T02:08:11.212Z,2.97
2019-04-14T02:10:41.272Z,3.50
2019-04-14T02:13:22.550Z,4.43
2019-04-14T02:15:51.147Z,4.10
2019-04-14T02:18:20.822Z,3.90
2019-04-14T02:21:08.682Z,3.57
2019-04-14T02:23:49.687Z,3.90
2019-04-14T02:26:18.254Z,4.90
2019-04-14T02:28:46.690Z,5.77
2019-04-14T02:31:31.783Z,5.13
2019-04-14T02:34:34.896Z,5.40
2019-04-14T02:37:10.819Z,5.53
2019-04-14T02:39:54.396Z,5.60
2019-04-14T02:44:57.732Z,5.63
2019-04-14T02:50:02.611Z,5.27
2019-04-14T02:54:59.654Z,6.93
2019-04-14T02:57:30.235Z,7.17
2019-04-14T02:59:58.530Z,7.63
2019-04-14T03:02:40.846Z,7.93
2019-04-14T03:04:58.677Z,8.77
2019-04-14T03:13:51.550Z,8.73
2019-04-14T03:22:28.963Z,8.20
2019-04-14T03:25:17.146Z,7.53
2019-04-14T03:28:11.266Z,8.10
2019-04-14T03:36:58.655Z,8.13
2019-04-14T03:38:53.290Z,7.60
2019-04-14T03:41:23.770Z,7.80
2019-04-14T03:43:41.375Z,9.30
2019-04-14T03:49:24.902Z,9.53
2019-04-14T03:56:55.492Z,7.70
2019-04-14T03:59:24.437Z,8.10
2019-04-14T04:01:52.870Z,8.30
2019-04-14T04:04:22.595Z,7.93
2019-04-14T04:07:10.365Z,8.20
2019-04-14T04:15:53.990Z,6.93
2019-04-14T04:21:20.544Z,5.77
2019-04-14T04:26:47.946Z,5.60
2019-04-14T04:32:25.198Z,4.43
2019-04-14T04:35:17.492Z,4.83
2019-04-14T04:38:07.251Z,3.27
2019-04-14T04:40:37.650Z,4.10
2019-04-14T04:43:06.181Z,3.37
2019-04-14T04:45:34.638Z,3.57
2019-04-14T04:48:03.067Z,3.23
2019-04-14T04:50:32.396Z,3.57
2019-04-14T04:53:02.597Z,3.70
2019-04-14T04:58:46.261Z,3.13
2019-04-14T05:01:14.710Z,4.33
2019-04-14T05:03:43.146Z,4.27
2019-04-14T05:06:31.018Z,4.20
2019-04-14T05:12:13.282Z,4.13
2019-04-14T05:14:45.623Z,3.50
2019-04-14T05:20:09.653Z,3.63
2019-04-14T05:22:50.691Z,3.97
2019-04-14T05:25:19.245Z,3.87
2019-04-14T05:30:50.706Z,3.37
2019-04-14T05:33:19.172Z,32.93
2019-04-14T05:35:48.746Z,8.63
2019-04-14T05:38:17.672Z,3.00
2019-04-14T05:40:47.738Z,2.50
2019-04-14T05:43:28.372Z,2.90
2019-04-14T05:45:46.323Z,2.83
2019-04-14T05:48:15.998Z,2.90
2019-04-14T05:50:44.945Z,15.23
2019-04-14T05:53:13.455Z,3.73
2019-04-14T05:55:41.878Z,2.33
2019-04-14T05:58:10.326Z,2.37
2019-04-14T06:03:29.927Z,1.97
2019-04-14T06:05:59.546Z,2.30
2019-04-14T06:08:28.014Z,8.27
2019-04-14T06:10:56.450Z,2.57
2019-04-14T06:13:24.903Z,2.00
2019-04-14T06:15:53.310Z,2.33
2019-04-14T06:18:21.762Z,3.60
2019-04-14T06:20:50.197Z,3.27
2019-04-14T06:23:18.621Z,2.87
2019-04-14T06:25:47.052Z,3.30
2019-04-14T06:28:15.469Z,3.43
2019-04-14T06:31:02.800Z,5.37
2019-04-14T06:33:50.080Z,4.13
2019-04-14T06:36:37.331Z,2.83
2019-04-14T06:39:10.845Z,2.43
2019-04-14T06:41:39.371Z,2.30
2019-04-14T06:44:07.874Z,2.10
2019-04-14T06:46:36.342Z,3.60
2019-04-14T06:49:04.910Z,3.40
2019-04-14T06:51:33.422Z,3.87
2019-04-14T06:54:01.874Z,2.70
2019-04-14T06:56:30.303Z,2.63
2019-04-14T06:58:58.742Z,3.77
2019-04-14T07:01:27.166Z,2.80
2019-04-14T07:03:55.590Z,3.60
2019-04-14T07:06:24.040Z,14.03
2019-04-14T07:08:52.584Z,3.40
2019-04-14T07:11:21.003Z,4.07
2019-04-14T07:13:49.439Z,2.93
2019-04-14T07:16:17.964Z,3.27
2019-04-14T07:18:48.878Z,2.60
2019-04-14T07:21:17.323Z,2.77
2019-04-14T07:26:57.697Z,2.10
2019-04-14T07:32:20.615Z,3.10
2019-04-14T07:35:07.886Z,3.13
2019-04-14T07:44:10.514Z,4.07
2019-04-14T07:46:45.582Z,3.07
2019-04-14T07:49:32.938Z,3.00
2019-04-14T07:52:20.227Z,2.57
2019-04-14T07:54:55.178Z,2.93
2019-04-14T07:57:42.554Z,3.43
2019-04-14T08:00:18.016Z,2.73
2019-04-14T08:05:41.062Z,2.50
2019-04-14T08:08:10.042Z,2.30
2019-04-14T08:10:38.458Z,2.97
2019-04-14T08:13:06.911Z,2.40
2019-04-14T08:15:54.185Z,3.90
2019-04-14T08:18:22.658Z,4.93
2019-04-14T08:20:51.089Z,4.77
2019-04-14T08:23:19.515Z,4.43
2019-04-14T08:25:47.961Z,4.10
2019-04-14T08:28:16.491Z,4.73
2019-04-14T08:30:44.941Z,4.63
2019-04-14T08:33:13.385Z,5.17
2019-04-14T08:35:41.851Z,3.50
2019-04-14T08:38:10.279Z,3.90
2019-04-14T08:40:38.711Z,4.47
2019-04-14T08:43:25.982Z,4.17
2019-04-14T08:46:13.281Z,4.90
2019-04-14T08:49:00.643Z,4.53
2019-04-14T08:51:47.975Z,7.77
2019-04-14T08:54:35.310Z,3.53
2019-04-14T08:57:22.735Z,3.30
2019-04-14T09:00:10.020Z,3.20
2019-04-14T09:03:04.682Z,4.37
2019-04-14T09:05:52.027Z,2.47
2019-04-14T09:08:27.837Z,4.23
2019-04-14T09:10:58.941Z,3.80
2019-04-14T09:13:27.388Z,6.03
2019-04-14T09:15:55.808Z,4.73
2019-04-14T09:18:24.359Z,3.67
2019-04-14T09:20:52.939Z,4.30
2019-04-14T09:23:22.892Z,3.77
2019-04-14T09:25:51.411Z,3.53
2019-04-14T09:28:19.954Z,3.00
2019-04-14T09:30:48.399Z,4.70
2019-04-14T09:33:16.925Z,5.00
2019-04-14T09:35:45.366Z,4.73
2019-04-14T09:38:32.711Z,7.60
2019-04-14T09:41:01.143Z,9.30
2019-04-14T09:43:29.621Z,6.63
2019-04-14T09:45:58.163Z,5.27
2019-04-14T09:48:26.601Z,7.60
2019-04-14T09:51:04.779Z,6.03
2019-04-14T09:53:25.253Z,5.30
2019-04-14T09:55:53.662Z,5.80
2019-04-14T09:58:23.251Z,5.67
2019-04-14T10:01:10.594Z,4.77
2019-04-14T10:03:39.023Z,6.90
2019-04-14T10:06:07.569Z,4.27
2019-04-14T10:08:54.894Z,6.40
2019-04-14T10:11:23.456Z,6.13
2019-04-14T10:13:51.926Z,5.20
2019-04-14T10:16:20.382Z,3.93
2019-04-14T10:18:48.817Z,8.57
2019-04-14T10:21:18.011Z,11.77
2019-04-14T10:23:47.466Z,9.70
2019-04-14T10:26:34.798Z,6.83
2019-04-14T10:29:03.489Z,11.03
2019-04-14T10:31:31.941Z,26.73
2019-04-14T10:34:00.362Z,6.77
2019-04-14T10:36:28.811Z,6.77
2019-04-14T10:38:57.209Z,8.23
2019-04-14T10:41:25.684Z,7.03
2019-04-14T10:43:54.146Z,13.63
2019-04-14T10:46:22.604Z,10.27
2019-04-14T10:48:51.010Z,7.30
2019-04-14T10:51:29.532Z,7.23
2019-04-14T10:53:49.657Z,8.97
2019-04-14T10:59:20.946Z,18.07
2019-04-14T11:01:49.545Z,7.37
2019-04-14T11:04:36.882Z,5.73
2019-04-14T11:07:08.557Z,6.70
2019-04-14T11:09:36.990Z,6.60
2019-04-14T11:14:59.542Z,5.53
2019-04-14T11:17:27.976Z,5.13
2019-04-14T11:23:05.526Z,5.20
2019-04-14T11:28:41.708Z,6.17
2019-04-14T11:34:00.322Z,5.23
2019-04-14T11:36:47.759Z,5.30
2019-04-14T11:39:16.835Z,11.23
2019-04-14T11:44:32.754Z,9.37
2019-04-14T11:47:01.185Z,6.27
2019-04-14T11:49:48.543Z,10.80
2019-04-14T11:52:16.969Z,8.93
2019-04-14T11:54:45.436Z,6.50
2019-04-14T11:57:13.839Z,5.20
2019-04-14T12:05:14.834Z,5.47
2019-04-14T12:10:34.305Z,6.83
2019-04-14T12:13:02.735Z,7.53
2019-04-14T12:15:31.193Z,5.73
2019-04-14T12:17:59.630Z,7.03
2019-04-14T12:20:28.074Z,5.37
2019-04-14T12:22:56.589Z,5.40
2019-04-14T12:25:25.035Z,5.97
2019-04-14T12:27:53.578Z,6.40
2019-04-14T12:30:24.465Z,7.17
2019-04-14T12:32:53.995Z,6.80
2019-04-14T12:35:22.410Z,8.77
2019-04-14T12:37:50.850Z,7.80
2019-04-14T12:40:19.378Z,8.40
2019-04-14T12:43:06.687Z,7.77
2019-04-14T12:45:54.071Z,7.27
2019-04-14T12:48:41.354Z,6.73
2019-04-14T12:54:06.807Z,8.20
2019-04-14T12:56:35.325Z,6.20
2019-04-14T12:59:23.275Z,8.60
2019-04-14T13:02:11.619Z,11.20
2019-04-14T13:04:40.375Z,8.47
2019-04-14T13:07:09.041Z,7.00
2019-04-14T13:09:37.575Z,5.53
2019-04-14T13:12:06.356Z,6.80
2019-04-14T13:14:35.030Z,6.33
2019-04-14T13:17:03.788Z,7.50
2019-04-14T13:19:32.217Z,5.53
2019-04-14T13:22:13.932Z,5.30
2019-04-14T13:24:30.872Z,5.30
2019-04-14T13:26:59.250Z,5.97
2019-04-14T13:29:27.930Z,5.23
2019-04-14T13:31:56.546Z,4.63
2019-04-14T13:34:24.990Z,4.83
2019-04-14T13:36:53.519Z,7.97
2019-04-14T13:39:22.065Z,6.77
2019-04-14T13:41:50.743Z,6.17
2019-04-14T13:44:19.276Z,8.37
2019-04-14T13:46:47.715Z,7.47
2019-04-14T13:49:16.257Z,8.10
2019-04-14T13:51:44.687Z,9.27
2019-04-14T13:54:13.132Z,6.17
2019-04-14T13:56:41.878Z,5.37
2019-04-14T13:59:10.540Z,5.37
2019-04-14T14:01:39.070Z,5.57
2019-04-14T14:04:07.539Z,6.17
2019-04-14T14:06:36.021Z,9.43
2019-04-14T14:12:17.309Z,5.00
2019-04-14T14:15:04.615Z,7.30
2019-04-14T14:17:46.570Z,6.70
2019-04-14T14:20:34.026Z,6.60
2019-04-14T14:23:21.267Z,8.20
2019-04-14T14:25:53.583Z,7.13
2019-04-14T14:28:22.030Z,7.40
2019-04-14T14:30:50.658Z,9.07
2019-04-14T14:33:19.091Z,9.63
2019-04-14T14:35:47.542Z,9.97
2019-04-14T14:38:15.978Z,12.90
2019-04-14T14:40:44.646Z,14.07
2019-04-14T14:43:31.985Z,19.23
2019-04-14T14:46:19.246Z,19.93
2019-04-14T14:48:52.611Z,9.63
2019-04-14T14:51:39.884Z,12.97
2019-04-14T14:54:08.321Z,17.10
2019-04-14T14:56:36.975Z,13.30
2019-04-14T15:01:59.678Z,9.47
2019-04-14T15:04:28.259Z,11.47
2019-04-14T15:06:56.774Z,10.00
2019-04-14T15:09:25.264Z,12.83
2019-04-14T15:11:53.693Z,11.77
2019-04-14T15:14:22.111Z,15.20
2019-04-14T15:22:55.089Z,13.00
2019-04-14T15:25:23.638Z,13.87
2019-04-14T15:27:52.182Z,11.97
2019-04-14T15:30:22.285Z,11.20
2019-04-14T15:32:50.835Z,11.87
2019-04-14T15:35:19.443Z,21.07
2019-04-14T15:37:47.984Z,19.00
2019-04-14T15:40:16.538Z,16.63
2019-04-14T15:42:45.289Z,13.53
2019-04-14T15:45:14.127Z,15.77
2019-04-14T15:47:43.826Z,18.90
2019-04-14T15:50:12.358Z,15.40
2019-04-14T15:52:40.807Z,12.90
2019-04-14T15:55:09.464Z,13.93
2019-04-14T16:00:47.583Z,10.87
2019-04-14T16:06:43.189Z,12.60
2019-04-14T16:12:15.926Z,13.73
2019-04-14T16:14:53.334Z,13.33
2019-04-14T16:17:40.683Z,13.27
2019-04-14T16:20:15.666Z,11.53
2019-04-14T16:22:44.172Z,12.47
2019-04-14T16:25:12.721Z,13.77
2019-04-14T16:28:00.001Z,16.33
2019-04-14T16:30:38.557Z,12.47
2019-04-14T16:33:25.838Z,16.80
2019-04-14T16:35:55.062Z,13.50
2019-04-14T16:38:23.582Z,13.77
2019-04-14T16:40:52.006Z,16.10
2019-04-14T16:43:20.528Z,13.53
2019-04-14T16:45:48.983Z,13.23
2019-04-14T16:48:17.415Z,19.27
2019-04-14T16:50:45.978Z,19.33
2019-04-14T16:53:33.350Z,15.60
2019-04-14T16:56:20.630Z,16.97
2019-04-14T16:59:01.412Z,14.13
2019-04-14T17:01:48.698Z,12.83
2019-04-14T17:04:17.139Z,11.30
2019-04-14T17:06:45.596Z,12.00
2019-04-14T17:09:14.146Z,12.07
2019-04-14T17:11:42.608Z,16.03
2019-04-14T17:14:29.867Z,13.17
2019-04-14T17:17:17.137Z,14.43
2019-04-14T17:20:04.397Z,11.80
2019-04-14T17:22:51.678Z,15.40
2019-04-14T17:25:38.954Z,15.47
2019-04-14T17:28:15.290Z,19.90
2019-04-14T17:30:53.219Z,18.87
2019-04-14T17:33:26.292Z,23.97
2019-04-14T17:36:13.646Z,13.87
2019-04-14T17:39:01.094Z,16.57
2019-04-14T17:41:48.346Z,15.77
2019-04-14T17:44:35.652Z,13.87
2019-04-14T17:47:23.045Z,16.53
2019-04-14T17:50:10.455Z,16.83
2019-04-14T17:55:50.243Z,15.10
2019-04-14T17:58:37.739Z,14.33
2019-04-14T18:01:23.166Z,15.37
2019-04-14T18:04:10.546Z,13.50
2019-04-14T18:06:52.592Z,14.67
2019-04-14T18:09:36.273Z,16.83
2019-04-14T18:12:13.667Z,15.30
2019-04-14T18:15:00.936Z,14.83
2019-04-14T18:17:48.301Z,12.23
2019-04-14T18:20:35.607Z,13.27
2019-04-14T18:23:04.054Z,11.37
2019-04-14T18:25:32.477Z,12.27
2019-04-14T18:28:19.751Z,12.50
2019-04-14T18:34:01.007Z,15.83
2019-04-14T18:36:48.282Z,13.53
2019-04-14T18:39:35.576Z,13.90
2019-04-14T18:42:22.930Z,14.83
2019-04-14T18:45:10.236Z,14.00
2019-04-14T18:47:57.494Z,15.33
2019-04-14T18:50:44.776Z,13.67
2019-04-14T18:53:32.238Z,13.43
2019-04-14T18:56:19.530Z,15.10
2019-04-14T18:59:06.797Z,14.53
2019-04-14T19:01:38.472Z,19.47
2019-04-14T19:04:07.006Z,14.60
2019-04-14T19:06:35.599Z,13.87
2019-04-14T19:12:02.713Z,14.00
2019-04-14T19:14:35.883Z,13.63
2019-04-14T19:17:08.719Z,12.40
2019-04-14T19:19:41.067Z,13.40
2019-04-14T19:22:09.542Z,13.73
2019-04-14T19:24:37.982Z,13.10
2019-04-14T19:27:06.438Z,14.03
2019-04-14T19:29:34.878Z,13.87
2019-04-14T19:32:03.370Z,15.80
2019-04-14T19:34:31.917Z,13.50
2019-04-14T19:37:00.350Z,13.63
2019-04-14T19:39:28.972Z,14.60
2019-04-14T19:42:16.284Z,12.90
2019-04-14T19:44:44.725Z,13.57
2019-04-14T19:47:13.174Z,12.70
2019-04-14T19:49:41.619Z,13.60
2019-04-14T19:52:10.069Z,12.57
2019-04-14T19:54:38.496Z,11.23
2019-04-14T19:57:06.975Z,14.33
2019-04-14T19:59:35.427Z,12.77
2019-04-14T20:02:03.848Z,13.10
2019-04-14T20:04:51.194Z,13.83
2019-04-14T20:07:19.650Z,12.17
2019-04-14T20:09:48.159Z,13.60
2019-04-14T20:18:01.986Z,13.87
2019-04-14T20:20:42.054Z,13.93
2019-04-14T20:26:49.379Z,13.47
2019-04-14T20:29:36.639Z,12.13
2019-04-14T20:35:04.450Z,11.77
2019-04-14T20:37:32.907Z,12.60
2019-04-14T20:43:07.698Z,12.43
2019-04-14T20:45:36.154Z,11.50
2019-04-14T20:48:04.703Z,11.33
2019-04-14T20:50:33.134Z,11.93
2019-04-14T20:53:20.583Z,10.30
2019-04-14T20:55:49.082Z,9.30
2019-04-14T20:58:36.422Z,9.20
2019-04-14T21:07:07.429Z,9.60
2019-04-14T21:09:54.770Z,9.83
2019-04-14T21:12:42.174Z,8.73
2019-04-14T21:18:32.209Z,10.03
2019-04-14T21:27:19.840Z,9.33
2019-04-14T21:30:07.139Z,9.03
2019-04-14T21:38:48.170Z,8.47
2019-04-14T21:41:35.454Z,7.83
2019-04-14T21:44:03.977Z,8.60
2019-04-14T21:46:51.322Z,8.77
2019-04-14T21:49:19.766Z,7.90
2019-04-14T21:52:25.942Z,8.10
2019-04-14T21:54:54.381Z,7.17
2019-04-14T21:57:41.652Z,7.87
2019-04-14T22:08:57.703Z,7.57
2019-04-14T22:11:27.199Z,7.87
2019-04-14T22:14:14.524Z,7.53
2019-04-14T22:17:01.936Z,8.00
2019-04-14T22:22:32.966Z,7.70
2019-04-14T22:25:20.403Z,8.03
2019-04-14T22:28:07.742Z,7.50
2019-04-14T22:30:36.237Z,7.60
2019-04-14T22:33:04.903Z,8.07
2019-04-14T22:35:34.745Z,8.63
2019-04-14T22:38:03.201Z,8.17
2019-04-14T22:40:31.843Z,7.17
2019-04-14T22:43:00.401Z,8.73
2019-04-14T22:45:28.821Z,8.63
2019-04-14T22:47:57.322Z,8.20
2019-04-14T22:50:44.714Z,7.93
2019-04-14T22:53:13.182Z,8.43
2019-04-14T22:55:41.633Z,8.30
2019-04-14T22:58:28.965Z,8.87
2019-04-14T23:01:16.338Z,9.03
2019-04-14T23:04:22.513Z,9.87
2019-04-14T23:07:09.863Z,10.37
2019-04-14T23:09:57.190Z,10.47
2019-04-14T23:12:44.466Z,11.47
2019-04-14T23:15:31.797Z,10.43
2019-04-14T23:21:15.062Z,10.63
2019-04-14T23:29:54.261Z,11.30
2019-04-14T23:32:22.690Z,11.60
2019-04-14T23:34:51.135Z,11.90
2019-04-14T23:37:19.558Z,10.80
2019-04-14T23:39:48.020Z,11.00
2019-04-14T23:42:16.468Z,11.10
2019-04-14T23:44:44.910Z,10.90
2019-04-14T23:47:13.435Z,11.03
2019-04-14T23:49:41.922Z,12.17
2019-04-14T23:52:29.262Z,12.40
2019-04-14T23:54:57.731Z,11.33
2019-04-14T23:57:26.245Z,11.83
2019-04-14T23:59:54.867Z,11.87
